sensor_id;sensor_type;location;lat;lon;timestamp;temperature;humidity
57552;DHT22;43379;48.160;14.036;2023-04-03T00:01:16;7.50;99.90
57552;DHT22;43379;48.160;14.036;2023-04-03T00:03:42;7.50;99.90
57552;DHT22;43379;48.160;14.036;2023-04-03T00:06:08;7.50;99.90
57552;DHT22;43379;48.160;14.036;2023-04-03T00:08:36;7.50;99.90
57552;DHT22;43379;48.160;14.036;2023-04-03T00:11:02;7.50;99.90
57552;DHT22;43379;48.160;14.036;2023-04-03T00:13:29;7.50;99.90
57552;DHT22;43379;48.160;14.036;2023-04-03T00:15:56;7.50;99.90
57552;DHT22;43379;48.160;14.036;2023-04-03T00:18:22;7.50;99.90
57552;DHT22;43379;48.160;14.036;2023-04-03T00:20:48;7.50;99.90
57552;DHT22;43379;48.160;14.036;2023-04-03T00:23:14;7.50;99.90
57552;DHT22;43379;48.160;14.036;2023-04-03T00:25:40;7.50;99.90
57552;DHT22;43379;48.160;14.036;2023-04-03T00:28:06;7.50;99.90
57552;DHT22;43379;48.160;14.036;2023-04-03T00:30:32;7.50;99.90
57552;DHT22;43379;48.160;14.036;2023-04-03T00:32:57;7.40;99.90
57552;DHT22;43379;48.160;14.036;2023-04-03T00:35:23;7.40;99.90
57552;DHT22;43379;48.160;14.036;2023-04-03T00:37:54;7.40;99.90
57552;DHT22;43379;48.160;14.036;2023-04-03T00:40:21;7.40;99.90
57552;DHT22;43379;48.160;14.036;2023-04-03T00:42:51;7.40;99.90
57552;DHT22;43379;48.160;14.036;2023-04-03T00:45:29;7.40;99.90
57552;DHT22;43379;48.160;14.036;2023-04-03T00:47:55;7.40;99.90
57552;DHT22;43379;48.160;14.036;2023-04-03T00:50:22;7.50;99.90
57552;DHT22;43379;48.160;14.036;2023-04-03T00:52:48;7.40;99.90
57552;DHT22;43379;48.160;14.036;2023-04-03T00:55:15;7.30;99.90
57552;DHT22;43379;48.160;14.036;2023-04-03T00:57:42;7.40;99.90
57552;DHT22;43379;48.160;14.036;2023-04-03T01:00:11;7.40;99.90
57552;DHT22;43379;48.160;14.036;2023-04-03T01:02:38;7.40;99.90
57552;DHT22;43379;48.160;14.036;2023-04-03T01:05:06;7.40;99.90
57552;DHT22;43379;48.160;14.036;2023-04-03T01:07:32;7.40;99.90
57552;DHT22;43379;48.160;14.036;2023-04-03T01:10:02;7.40;99.90
57552;DHT22;43379;48.160;14.036;2023-04-03T01:12:29;7.30;99.90
57552;DHT22;43379;48.160;14.036;2023-04-03T01:14:57;7.20;99.90
57552;DHT22;43379;48.160;14.036;2023-04-03T01:28:04;7.30;99.90
57552;DHT22;43379;48.160;14.036;2023-04-03T01:30:50;7.20;99.90
57552;DHT22;43379;48.160;14.036;2023-04-03T01:33:18;7.20;99.90
57552;DHT22;43379;48.160;14.036;2023-04-03T01:35:44;7.20;99.90
57552;DHT22;43379;48.160;14.036;2023-04-03T01:38:10;7.20;99.90
57552;DHT22;43379;48.160;14.036;2023-04-03T01:40:36;7.20;99.90
57552;DHT22;43379;48.160;14.036;2023-04-03T01:43:01;7.20;99.90
57552;DHT22;43379;48.160;14.036;2023-04-03T01:45:27;7.30;99.90
57552;DHT22;43379;48.160;14.036;2023-04-03T01:47:53;7.30;99.90
57552;DHT22;43379;48.160;14.036;2023-04-03T01:50:18;7.30;99.90
57552;DHT22;43379;48.160;14.036;2023-04-03T01:52:44;7.30;99.90
57552;DHT22;43379;48.160;14.036;2023-04-03T01:55:09;7.30;99.90
57552;DHT22;43379;48.160;14.036;2023-04-03T01:57:35;7.30;99.90
57552;DHT22;43379;48.160;14.036;2023-04-03T02:00:01;7.40;99.90
57552;DHT22;43379;48.160;14.036;2023-04-03T02:02:26;7.20;99.90
57552;DHT22;43379;48.160;14.036;2023-04-03T02:04:52;7.30;99.90
57552;DHT22;43379;48.160;14.036;2023-04-03T02:07:18;7.20;99.90
57552;DHT22;43379;48.160;14.036;2023-04-03T02:09:43;7.20;99.90
57552;DHT22;43379;48.160;14.036;2023-04-03T02:12:09;7.20;99.90
57552;DHT22;43379;48.160;14.036;2023-04-03T02:14:35;7.20;99.90
57552;DHT22;43379;48.160;14.036;2023-04-03T02:17:01;7.20;99.90
57552;DHT22;43379;48.160;14.036;2023-04-03T02:19:31;7.20;99.90
57552;DHT22;43379;48.160;14.036;2023-04-03T02:21:56;7.20;99.90
57552;DHT22;43379;48.160;14.036;2023-04-03T02:24:22;7.20;99.90
57552;DHT22;43379;48.160;14.036;2023-04-03T02:26:48;7.20;99.90
57552;DHT22;43379;48.160;14.036;2023-04-03T02:29:13;7.20;99.90
57552;DHT22;43379;48.160;14.036;2023-04-03T02:31:39;7.20;99.90
57552;DHT22;43379;48.160;14.036;2023-04-03T02:34:05;7.10;99.90
57552;DHT22;43379;48.160;14.036;2023-04-03T02:36:31;7.10;99.90
57552;DHT22;43379;48.160;14.036;2023-04-03T02:38:56;7.10;99.90
57552;DHT22;43379;48.160;14.036;2023-04-03T02:41:22;7.10;99.90
57552;DHT22;43379;48.160;14.036;2023-04-03T02:43:48;7.10;99.90
57552;DHT22;43379;48.160;14.036;2023-04-03T02:46:14;7.00;99.90
57552;DHT22;43379;48.160;14.036;2023-04-03T02:48:40;7.10;99.90
57552;DHT22;43379;48.160;14.036;2023-04-03T02:51:06;7.10;99.90
57552;DHT22;43379;48.160;14.036;2023-04-03T02:53:32;7.10;99.90
57552;DHT22;43379;48.160;14.036;2023-04-03T02:55:57;7.10;99.90
57552;DHT22;43379;48.160;14.036;2023-04-03T02:58:23;7.10;99.90
57552;DHT22;43379;48.160;14.036;2023-04-03T03:00:49;7.10;99.90
57552;DHT22;43379;48.160;14.036;2023-04-03T03:03:14;7.00;99.90
57552;DHT22;43379;48.160;14.036;2023-04-03T03:05:40;7.00;99.90
57552;DHT22;43379;48.160;14.036;2023-04-03T03:08:06;7.10;99.90
57552;DHT22;43379;48.160;14.036;2023-04-03T03:10:31;7.00;99.90
57552;DHT22;43379;48.160;14.036;2023-04-03T03:12:57;7.00;99.90
57552;DHT22;43379;48.160;14.036;2023-04-03T03:15:22;7.00;99.90
57552;DHT22;43379;48.160;14.036;2023-04-03T03:17:48;7.00;99.90
57552;DHT22;43379;48.160;14.036;2023-04-03T03:20:14;7.00;99.90
57552;DHT22;43379;48.160;14.036;2023-04-03T03:22:40;7.00;99.90
57552;DHT22;43379;48.160;14.036;2023-04-03T03:25:06;7.00;99.90
57552;DHT22;43379;48.160;14.036;2023-04-03T03:27:32;7.00;99.90
57552;DHT22;43379;48.160;14.036;2023-04-03T03:29:58;7.10;99.90
57552;DHT22;43379;48.160;14.036;2023-04-03T03:32:23;7.00;99.90
57552;DHT22;43379;48.160;14.036;2023-04-03T03:34:49;7.10;99.90
57552;DHT22;43379;48.160;14.036;2023-04-03T03:37:15;7.00;99.90
57552;DHT22;43379;48.160;14.036;2023-04-03T03:39:40;7.00;99.90
57552;DHT22;43379;48.160;14.036;2023-04-03T03:42:06;7.00;99.90
57552;DHT22;43379;48.160;14.036;2023-04-03T03:44:32;7.10;99.90
57552;DHT22;43379;48.160;14.036;2023-04-03T03:46:57;7.00;99.90
57552;DHT22;43379;48.160;14.036;2023-04-03T03:49:23;7.00;99.90
57552;DHT22;43379;48.160;14.036;2023-04-03T03:51:48;7.00;99.90
57552;DHT22;43379;48.160;14.036;2023-04-03T03:54:15;7.00;99.90
57552;DHT22;43379;48.160;14.036;2023-04-03T03:56:40;7.00;99.90
57552;DHT22;43379;48.160;14.036;2023-04-03T03:59:06;7.00;99.90
57552;DHT22;43379;48.160;14.036;2023-04-03T04:01:32;7.00;99.90
57552;DHT22;43379;48.160;14.036;2023-04-03T04:03:58;7.00;99.90
57552;DHT22;43379;48.160;14.036;2023-04-03T04:06:24;6.90;99.90
57552;DHT22;43379;48.160;14.036;2023-04-03T04:08:49;6.90;99.90
57552;DHT22;43379;48.160;14.036;2023-04-03T04:11:15;6.90;99.90
57552;DHT22;43379;48.160;14.036;2023-04-03T04:13:41;6.90;99.90
57552;DHT22;43379;48.160;14.036;2023-04-03T04:16:07;6.90;99.90
57552;DHT22;43379;48.160;14.036;2023-04-03T04:18:32;6.90;99.90
57552;DHT22;43379;48.160;14.036;2023-04-03T04:20:58;6.90;99.90
57552;DHT22;43379;48.160;14.036;2023-04-03T04:23:24;6.90;99.90
57552;DHT22;43379;48.160;14.036;2023-04-03T04:25:50;6.90;99.90
57552;DHT22;43379;48.160;14.036;2023-04-03T04:28:16;6.90;99.90
57552;DHT22;43379;48.160;14.036;2023-04-03T04:30:42;6.90;99.90
57552;DHT22;43379;48.160;14.036;2023-04-03T04:33:08;6.90;99.90
57552;DHT22;43379;48.160;14.036;2023-04-03T04:35:34;6.90;99.90
57552;DHT22;43379;48.160;14.036;2023-04-03T04:37:59;6.80;99.90
57552;DHT22;43379;48.160;14.036;2023-04-03T04:40:26;6.80;99.90
57552;DHT22;43379;48.160;14.036;2023-04-03T04:42:52;6.80;99.90
57552;DHT22;43379;48.160;14.036;2023-04-03T04:45:17;6.80;99.90
57552;DHT22;43379;48.160;14.036;2023-04-03T04:47:43;6.80;99.90
57552;DHT22;43379;48.160;14.036;2023-04-03T04:50:10;6.80;99.90
57552;DHT22;43379;48.160;14.036;2023-04-03T04:52:35;6.90;99.90
57552;DHT22;43379;48.160;14.036;2023-04-03T04:55:01;6.80;99.90
57552;DHT22;43379;48.160;14.036;2023-04-03T04:57:27;6.80;99.90
57552;DHT22;43379;48.160;14.036;2023-04-03T04:59:52;6.80;99.90
57552;DHT22;43379;48.160;14.036;2023-04-03T05:02:18;6.80;99.90
57552;DHT22;43379;48.160;14.036;2023-04-03T05:04:44;6.80;99.90
57552;DHT22;43379;48.160;14.036;2023-04-03T05:07:10;6.80;99.90
57552;DHT22;43379;48.160;14.036;2023-04-03T05:09:35;6.80;99.90
57552;DHT22;43379;48.160;14.036;2023-04-03T05:12:02;6.80;99.90
57552;DHT22;43379;48.160;14.036;2023-04-03T05:14:28;6.80;99.90
57552;DHT22;43379;48.160;14.036;2023-04-03T05:16:54;6.80;99.90
57552;DHT22;43379;48.160;14.036;2023-04-03T05:19:23;6.80;99.90
57552;DHT22;43379;48.160;14.036;2023-04-03T05:21:48;6.80;99.90
57552;DHT22;43379;48.160;14.036;2023-04-03T05:24:15;6.90;99.90
57552;DHT22;43379;48.160;14.036;2023-04-03T05:26:42;6.90;99.90
57552;DHT22;43379;48.160;14.036;2023-04-03T05:29:08;6.90;99.90
57552;DHT22;43379;48.160;14.036;2023-04-03T05:31:34;6.90;99.90
57552;DHT22;43379;48.160;14.036;2023-04-03T05:34:00;6.90;99.90
57552;DHT22;43379;48.160;14.036;2023-04-03T05:36:25;6.90;99.90
57552;DHT22;43379;48.160;14.036;2023-04-03T05:38:52;6.90;99.90
57552;DHT22;43379;48.160;14.036;2023-04-03T05:41:18;6.90;99.90
57552;DHT22;43379;48.160;14.036;2023-04-03T05:43:44;6.90;99.90
57552;DHT22;43379;48.160;14.036;2023-04-03T05:46:11;6.90;99.90
57552;DHT22;43379;48.160;14.036;2023-04-03T05:48:37;6.90;99.90
57552;DHT22;43379;48.160;14.036;2023-04-03T05:51:04;7.00;99.90
57552;DHT22;43379;48.160;14.036;2023-04-03T05:53:32;6.90;99.90
57552;DHT22;43379;48.160;14.036;2023-04-03T05:55:58;6.90;99.90
57552;DHT22;43379;48.160;14.036;2023-04-03T05:58:24;6.90;99.90
57552;DHT22;43379;48.160;14.036;2023-04-03T06:00:49;7.00;99.90
57552;DHT22;43379;48.160;14.036;2023-04-03T06:03:15;7.00;99.90
57552;DHT22;43379;48.160;14.036;2023-04-03T06:05:42;7.00;99.90
57552;DHT22;43379;48.160;14.036;2023-04-03T06:08:08;6.90;99.90
57552;DHT22;43379;48.160;14.036;2023-04-03T06:10:34;6.90;99.90
57552;DHT22;43379;48.160;14.036;2023-04-03T06:13:01;6.90;99.90
57552;DHT22;43379;48.160;14.036;2023-04-03T06:15:27;6.90;99.90
57552;DHT22;43379;48.160;14.036;2023-04-03T06:17:53;7.00;99.90
57552;DHT22;43379;48.160;14.036;2023-04-03T06:20:19;7.10;99.90
57552;DHT22;43379;48.160;14.036;2023-04-03T06:22:45;7.10;99.90
57552;DHT22;43379;48.160;14.036;2023-04-03T06:25:11;7.10;99.90
57552;DHT22;43379;48.160;14.036;2023-04-03T06:27:38;7.10;99.90
57552;DHT22;43379;48.160;14.036;2023-04-03T06:30:04;7.10;99.90
57552;DHT22;43379;48.160;14.036;2023-04-03T06:32:30;7.10;99.90
57552;DHT22;43379;48.160;14.036;2023-04-03T06:34:56;7.10;99.90
57552;DHT22;43379;48.160;14.036;2023-04-03T06:37:23;7.10;99.90
57552;DHT22;43379;48.160;14.036;2023-04-03T06:39:51;7.10;99.90
57552;DHT22;43379;48.160;14.036;2023-04-03T06:42:17;7.20;99.90
57552;DHT22;43379;48.160;14.036;2023-04-03T06:44:43;7.20;99.90
57552;DHT22;43379;48.160;14.036;2023-04-03T06:47:16;7.20;99.90
57552;DHT22;43379;48.160;14.036;2023-04-03T06:49:42;7.20;99.90
57552;DHT22;43379;48.160;14.036;2023-04-03T06:52:08;7.30;99.90
57552;DHT22;43379;48.160;14.036;2023-04-03T06:54:34;7.30;99.90
57552;DHT22;43379;48.160;14.036;2023-04-03T06:57:00;7.30;99.90
57552;DHT22;43379;48.160;14.036;2023-04-03T06:59:26;7.30;99.90
57552;DHT22;43379;48.160;14.036;2023-04-03T07:01:52;7.30;99.90
57552;DHT22;43379;48.160;14.036;2023-04-03T07:04:18;7.30;99.90
57552;DHT22;43379;48.160;14.036;2023-04-03T07:06:46;7.40;99.90
57552;DHT22;43379;48.160;14.036;2023-04-03T07:09:12;7.40;99.90
57552;DHT22;43379;48.160;14.036;2023-04-03T07:11:38;7.40;99.90
57552;DHT22;43379;48.160;14.036;2023-04-03T07:14:04;7.40;99.90
57552;DHT22;43379;48.160;14.036;2023-04-03T07:16:31;7.50;99.90
57552;DHT22;43379;48.160;14.036;2023-04-03T07:18:57;7.60;99.90
57552;DHT22;43379;48.160;14.036;2023-04-03T07:21:23;7.60;99.90
57552;DHT22;43379;48.160;14.036;2023-04-03T07:23:49;7.60;99.90
57552;DHT22;43379;48.160;14.036;2023-04-03T07:26:15;7.70;99.90
57552;DHT22;43379;48.160;14.036;2023-04-03T07:28:40;7.60;99.50
57552;DHT22;43379;48.160;14.036;2023-04-03T07:31:10;7.60;99.30
57552;DHT22;43379;48.160;14.036;2023-04-03T07:33:39;7.70;99.40
57552;DHT22;43379;48.160;14.036;2023-04-03T07:36:06;7.70;99.60
57552;DHT22;43379;48.160;14.036;2023-04-03T07:38:32;7.70;98.80
57552;DHT22;43379;48.160;14.036;2023-04-03T07:40:58;7.70;98.40
57552;DHT22;43379;48.160;14.036;2023-04-03T07:43:24;7.60;97.80
57552;DHT22;43379;48.160;14.036;2023-04-03T07:45:51;7.70;98.10
57552;DHT22;43379;48.160;14.036;2023-04-03T07:48:25;7.70;97.90
57552;DHT22;43379;48.160;14.036;2023-04-03T07:50:52;7.70;97.90
57552;DHT22;43379;48.160;14.036;2023-04-03T07:53:18;7.70;98.80
57552;DHT22;43379;48.160;14.036;2023-04-03T07:55:46;7.80;98.20
57552;DHT22;43379;48.160;14.036;2023-04-03T07:58:16;7.90;97.80
57552;DHT22;43379;48.160;14.036;2023-04-03T08:00:43;8.00;98.30
57552;DHT22;43379;48.160;14.036;2023-04-03T08:03:10;8.00;97.90
57552;DHT22;43379;48.160;14.036;2023-04-03T08:05:38;8.10;97.70
57552;DHT22;43379;48.160;14.036;2023-04-03T08:08:05;8.00;97.20
57552;DHT22;43379;48.160;14.036;2023-04-03T08:10:31;7.90;97.20
57552;DHT22;43379;48.160;14.036;2023-04-03T08:12:57;7.80;97.80
57552;DHT22;43379;48.160;14.036;2023-04-03T08:15:23;7.70;98.30
57552;DHT22;43379;48.160;14.036;2023-04-03T08:17:48;7.60;98.80
57552;DHT22;43379;48.160;14.036;2023-04-03T08:20:14;7.50;99.20
57552;DHT22;43379;48.160;14.036;2023-04-03T08:22:40;7.50;99.70
57552;DHT22;43379;48.160;14.036;2023-04-03T08:25:06;7.40;99.80
57552;DHT22;43379;48.160;14.036;2023-04-03T08:27:32;7.30;99.90
57552;DHT22;43379;48.160;14.036;2023-04-03T08:29:57;7.20;99.90
57552;DHT22;43379;48.160;14.036;2023-04-03T08:32:23;7.10;99.90
57552;DHT22;43379;48.160;14.036;2023-04-03T08:34:49;7.00;99.90
57552;DHT22;43379;48.160;14.036;2023-04-03T08:37:15;6.90;99.90
57552;DHT22;43379;48.160;14.036;2023-04-03T08:39:42;6.60;99.90
57552;DHT22;43379;48.160;14.036;2023-04-03T08:42:33;6.60;99.90
57552;DHT22;43379;48.160;14.036;2023-04-03T08:45:15;6.40;99.90
57552;DHT22;43379;48.160;14.036;2023-04-03T08:47:58;6.40;99.90
57552;DHT22;43379;48.160;14.036;2023-04-03T08:50:33;6.40;99.90
57552;DHT22;43379;48.160;14.036;2023-04-03T08:53:01;6.20;99.90
57552;DHT22;43379;48.160;14.036;2023-04-03T08:55:43;6.30;99.90
57552;DHT22;43379;48.160;14.036;2023-04-03T08:58:16;6.30;99.90
57552;DHT22;43379;48.160;14.036;2023-04-03T09:01:04;6.40;99.90
57552;DHT22;43379;48.160;14.036;2023-04-03T09:03:37;6.50;99.90
57552;DHT22;43379;48.160;14.036;2023-04-03T09:06:05;6.60;99.90
57552;DHT22;43379;48.160;14.036;2023-04-03T09:13:49;6.80;99.90
57552;DHT22;43379;48.160;14.036;2023-04-03T09:16:46;6.90;99.90
57552;DHT22;43379;48.160;14.036;2023-04-03T09:19:25;7.00;99.90
57552;DHT22;43379;48.160;14.036;2023-04-03T09:21:59;7.10;99.90
57552;DHT22;43379;48.160;14.036;2023-04-03T09:24:28;7.10;99.90
57552;DHT22;43379;48.160;14.036;2023-04-03T09:27:04;7.20;99.90
57552;DHT22;43379;48.160;14.036;2023-04-03T09:29:31;7.20;99.90
57552;DHT22;43379;48.160;14.036;2023-04-03T09:32:01;7.20;99.90
57552;DHT22;43379;48.160;14.036;2023-04-03T09:34:32;7.30;99.90
57552;DHT22;43379;48.160;14.036;2023-04-03T09:37:04;7.30;99.90
57552;DHT22;43379;48.160;14.036;2023-04-03T09:39:50;7.30;99.90
57552;DHT22;43379;48.160;14.036;2023-04-03T09:42:23;7.20;99.90
57552;DHT22;43379;48.160;14.036;2023-04-03T09:44:57;7.20;99.90
57552;DHT22;43379;48.160;14.036;2023-04-03T09:47:26;7.30;97.70
57552;DHT22;43379;48.160;14.036;2023-04-03T09:52:35;7.40;97.40
57552;DHT22;43379;48.160;14.036;2023-04-03T09:55:10;7.40;96.90
57552;DHT22;43379;48.160;14.036;2023-04-03T09:57:39;7.50;97.30
57552;DHT22;43379;48.160;14.036;2023-04-03T10:00:05;7.40;96.60
57552;DHT22;43379;48.160;14.036;2023-04-03T10:02:41;7.50;96.40
57552;DHT22;43379;48.160;14.036;2023-04-03T10:05:40;7.50;95.40
57552;DHT22;43379;48.160;14.036;2023-04-03T10:10:45;7.70;96.30
57552;DHT22;43379;48.160;14.036;2023-04-03T10:13:13;7.80;96.40
57552;DHT22;43379;48.160;14.036;2023-04-03T10:15:51;7.90;96.40
57552;DHT22;43379;48.160;14.036;2023-04-03T10:21:28;8.20;94.90
57552;DHT22;43379;48.160;14.036;2023-04-03T10:26:59;8.50;95.70
57552;DHT22;43379;48.160;14.036;2023-04-03T10:32:44;9.00;95.60
57552;DHT22;43379;48.160;14.036;2023-04-03T10:35:44;9.10;95.00
57552;DHT22;43379;48.160;14.036;2023-04-03T10:38:30;9.20;92.60
57552;DHT22;43379;48.160;14.036;2023-04-03T10:41:02;9.40;93.80
57552;DHT22;43379;48.160;14.036;2023-04-03T10:43:39;9.60;93.50
57552;DHT22;43379;48.160;14.036;2023-04-03T10:46:23;9.70;92.70
57552;DHT22;43379;48.160;14.036;2023-04-03T10:49:00;9.80;90.70
57552;DHT22;43379;48.160;14.036;2023-04-03T10:51:54;10.00;91.30
57552;DHT22;43379;48.160;14.036;2023-04-03T10:54:40;10.20;90.90
57552;DHT22;43379;48.160;14.036;2023-04-03T10:57:11;10.60;90.40
57552;DHT22;43379;48.160;14.036;2023-04-03T10:59:45;10.70;90.80
57552;DHT22;43379;48.160;14.036;2023-04-03T11:02:24;10.80;90.70
57552;DHT22;43379;48.160;14.036;2023-04-03T11:05:24;10.70;89.50
57552;DHT22;43379;48.160;14.036;2023-04-03T11:07:53;10.90;86.10
57552;DHT22;43379;48.160;14.036;2023-04-03T11:10:37;10.90;87.60
57552;DHT22;43379;48.160;14.036;2023-04-03T11:13:17;10.70;88.00
57552;DHT22;43379;48.160;14.036;2023-04-03T11:15:44;10.50;85.10
57552;DHT22;43379;48.160;14.036;2023-04-03T11:18:35;10.30;84.00
57552;DHT22;43379;48.160;14.036;2023-04-03T11:21:07;10.20;86.80
57552;DHT22;43379;48.160;14.036;2023-04-03T11:23:36;10.20;86.90
57552;DHT22;43379;48.160;14.036;2023-04-03T11:26:14;10.00;86.10
57552;DHT22;43379;48.160;14.036;2023-04-03T11:28:41;9.90;85.50
57552;DHT22;43379;48.160;14.036;2023-04-03T11:31:31;9.80;88.30
57552;DHT22;43379;48.160;14.036;2023-04-03T11:34:22;9.60;86.20
57552;DHT22;43379;48.160;14.036;2023-04-03T11:36:56;9.50;87.60
57552;DHT22;43379;48.160;14.036;2023-04-03T11:39:29;9.40;87.10
57552;DHT22;43379;48.160;14.036;2023-04-03T11:42:22;9.30;87.00
57552;DHT22;43379;48.160;14.036;2023-04-03T11:44:51;9.20;85.50
57552;DHT22;43379;48.160;14.036;2023-04-03T11:47:49;9.20;86.70
57552;DHT22;43379;48.160;14.036;2023-04-03T12:16:29;8.90;88.90
57552;DHT22;43379;48.160;14.036;2023-04-03T12:19:02;8.70;89.60
57552;DHT22;43379;48.160;14.036;2023-04-03T12:42:42;8.00;90.20
57552;DHT22;43379;48.160;14.036;2023-04-03T12:45:20;7.90;89.10
57552;DHT22;43379;48.160;14.036;2023-04-03T12:47:48;7.80;89.00
57552;DHT22;43379;48.160;14.036;2023-04-03T12:50:28;7.70;89.00
57552;DHT22;43379;48.160;14.036;2023-04-03T12:53:05;7.80;88.50
57552;DHT22;43379;48.160;14.036;2023-04-03T12:55:31;7.80;88.20
57552;DHT22;43379;48.160;14.036;2023-04-03T12:57:57;7.80;88.60
57552;DHT22;43379;48.160;14.036;2023-04-03T13:00:38;7.80;88.90
57552;DHT22;43379;48.160;14.036;2023-04-03T13:03:06;7.80;88.40
57552;DHT22;43379;48.160;14.036;2023-04-03T13:05:44;7.70;87.00
57552;DHT22;43379;48.160;14.036;2023-04-03T13:08:13;7.80;87.70
57552;DHT22;43379;48.160;14.036;2023-04-03T13:10:58;7.80;86.40
57552;DHT22;43379;48.160;14.036;2023-04-03T13:13:25;7.80;86.30
57552;DHT22;43379;48.160;14.036;2023-04-03T13:15:52;7.80;85.30
57552;DHT22;43379;48.160;14.036;2023-04-03T13:18:23;7.80;84.10
57552;DHT22;43379;48.160;14.036;2023-04-03T13:20:49;7.80;85.20
57552;DHT22;43379;48.160;14.036;2023-04-03T13:23:17;7.90;85.60
57552;DHT22;43379;48.160;14.036;2023-04-03T13:25:46;8.10;85.50
57552;DHT22;43379;48.160;14.036;2023-04-03T13:28:17;8.20;83.70
57552;DHT22;43379;48.160;14.036;2023-04-03T13:33:51;8.40;83.60
57552;DHT22;43379;48.160;14.036;2023-04-03T13:36:20;8.50;83.60
57552;DHT22;43379;48.160;14.036;2023-04-03T13:38:46;8.60;84.30
57552;DHT22;43379;48.160;14.036;2023-04-03T13:41:34;8.70;82.80
57552;DHT22;43379;48.160;14.036;2023-04-03T13:44:36;8.90;82.00
57552;DHT22;43379;48.160;14.036;2023-04-03T13:49:42;9.20;81.80
57552;DHT22;43379;48.160;14.036;2023-04-03T13:52:28;9.30;80.30
57552;DHT22;43379;48.160;14.036;2023-04-03T13:54:57;9.40;80.20
57552;DHT22;43379;48.160;14.036;2023-04-03T13:57:23;9.30;80.20
57552;DHT22;43379;48.160;14.036;2023-04-03T13:59:49;9.30;79.90
57552;DHT22;43379;48.160;14.036;2023-04-03T14:07:14;9.30;78.10
57552;DHT22;43379;48.160;14.036;2023-04-03T14:09:41;9.20;76.90
57552;DHT22;43379;48.160;14.036;2023-04-03T14:12:13;9.30;77.80
57552;DHT22;43379;48.160;14.036;2023-04-03T14:14:41;9.40;78.20
57552;DHT22;43379;48.160;14.036;2023-04-03T14:17:22;9.40;77.90
57552;DHT22;43379;48.160;14.036;2023-04-03T14:19:49;9.50;78.50
57552;DHT22;43379;48.160;14.036;2023-04-03T14:22:27;9.40;76.00
57552;DHT22;43379;48.160;14.036;2023-04-03T14:24:54;9.30;75.00
57552;DHT22;43379;48.160;14.036;2023-04-03T14:27:33;9.30;75.30
57552;DHT22;43379;48.160;14.036;2023-04-03T14:29:59;9.30;76.80
57552;DHT22;43379;48.160;14.036;2023-04-03T14:32:26;9.30;76.70
57552;DHT22;43379;48.160;14.036;2023-04-03T14:34:53;9.10;74.90
57552;DHT22;43379;48.160;14.036;2023-04-03T14:37:22;9.10;76.10
57552;DHT22;43379;48.160;14.036;2023-04-03T14:39:51;9.10;75.70
57552;DHT22;43379;48.160;14.036;2023-04-03T14:42:21;9.00;73.80
57552;DHT22;43379;48.160;14.036;2023-04-03T14:44:47;8.90;73.80
57552;DHT22;43379;48.160;14.036;2023-04-03T14:47:24;8.80;74.80
57552;DHT22;43379;48.160;14.036;2023-04-03T14:49:51;8.90;76.60
57552;DHT22;43379;48.160;14.036;2023-04-03T14:52:22;8.70;73.40
57552;DHT22;43379;48.160;14.036;2023-04-03T14:54:49;8.60;74.60
57552;DHT22;43379;48.160;14.036;2023-04-03T14:57:16;8.60;75.80
57552;DHT22;43379;48.160;14.036;2023-04-03T14:59:43;8.60;76.40
57552;DHT22;43379;48.160;14.036;2023-04-03T15:02:36;8.60;76.10
57552;DHT22;43379;48.160;14.036;2023-04-03T15:05:10;8.60;76.50
57552;DHT22;43379;48.160;14.036;2023-04-03T15:07:45;8.60;75.20
57552;DHT22;43379;48.160;14.036;2023-04-03T15:10:22;8.50;74.60
57552;DHT22;43379;48.160;14.036;2023-04-03T15:12:49;8.50;75.20
57552;DHT22;43379;48.160;14.036;2023-04-03T15:15:17;8.40;75.00
57552;DHT22;43379;48.160;14.036;2023-04-03T15:17:43;8.50;74.00
57552;DHT22;43379;48.160;14.036;2023-04-03T15:20:18;8.40;74.40
57552;DHT22;43379;48.160;14.036;2023-04-03T15:22:44;8.50;74.70
57552;DHT22;43379;48.160;14.036;2023-04-03T15:25:10;8.50;75.30
57552;DHT22;43379;48.160;14.036;2023-04-03T15:27:37;8.50;76.00
57552;DHT22;43379;48.160;14.036;2023-04-03T15:30:04;8.50;76.10
57552;DHT22;43379;48.160;14.036;2023-04-03T15:32:30;8.40;76.30
57552;DHT22;43379;48.160;14.036;2023-04-03T15:34:56;8.30;75.20
57552;DHT22;43379;48.160;14.036;2023-04-03T15:37:22;8.40;75.50
57552;DHT22;43379;48.160;14.036;2023-04-03T15:39:48;8.30;75.20
57552;DHT22;43379;48.160;14.036;2023-04-03T15:42:13;8.20;73.70
57552;DHT22;43379;48.160;14.036;2023-04-03T15:44:39;8.20;74.00
57552;DHT22;43379;48.160;14.036;2023-04-03T15:47:05;8.20;74.30
57552;DHT22;43379;48.160;14.036;2023-04-03T15:49:33;8.10;72.50
57552;DHT22;43379;48.160;14.036;2023-04-03T15:51:59;8.10;74.40
57552;DHT22;43379;48.160;14.036;2023-04-03T15:54:25;8.10;74.30
57552;DHT22;43379;48.160;14.036;2023-04-03T15:56:52;7.90;74.60
57552;DHT22;43379;48.160;14.036;2023-04-03T15:59:18;8.00;76.30
57552;DHT22;43379;48.160;14.036;2023-04-03T16:01:44;7.90;76.60
57552;DHT22;43379;48.160;14.036;2023-04-03T16:04:09;7.90;75.30
57552;DHT22;43379;48.160;14.036;2023-04-03T16:06:37;7.90;74.40
57552;DHT22;43379;48.160;14.036;2023-04-03T16:09:04;7.80;74.90
57552;DHT22;43379;48.160;14.036;2023-04-03T16:11:30;7.80;75.80
57552;DHT22;43379;48.160;14.036;2023-04-03T16:13:56;7.80;76.30
57552;DHT22;43379;48.160;14.036;2023-04-03T16:16:23;7.80;75.90
57552;DHT22;43379;48.160;14.036;2023-04-03T16:18:49;7.80;77.30
57552;DHT22;43379;48.160;14.036;2023-04-03T16:21:16;7.70;77.00
57552;DHT22;43379;48.160;14.036;2023-04-03T16:23:43;7.80;77.80
57552;DHT22;43379;48.160;14.036;2023-04-03T16:26:08;7.80;77.90
57552;DHT22;43379;48.160;14.036;2023-04-03T16:28:34;7.80;77.90
57552;DHT22;43379;48.160;14.036;2023-04-03T16:31:01;7.50;77.30
57552;DHT22;43379;48.160;14.036;2023-04-03T16:33:28;7.50;77.90
57552;DHT22;43379;48.160;14.036;2023-04-03T16:35:54;7.60;79.10
57552;DHT22;43379;48.160;14.036;2023-04-03T16:38:20;7.50;78.50
57552;DHT22;43379;48.160;14.036;2023-04-03T16:40:48;7.30;77.50
57552;DHT22;43379;48.160;14.036;2023-04-03T16:43:14;7.20;78.70
57552;DHT22;43379;48.160;14.036;2023-04-03T16:45:40;7.10;78.90
57552;DHT22;43379;48.160;14.036;2023-04-03T16:48:06;7.10;79.20
57552;DHT22;43379;48.160;14.036;2023-04-03T16:50:31;7.10;79.50
57552;DHT22;43379;48.160;14.036;2023-04-03T16:52:57;7.10;79.60
57552;DHT22;43379;48.160;14.036;2023-04-03T16:55:23;7.10;80.00
57552;DHT22;43379;48.160;14.036;2023-04-03T16:57:49;7.10;78.80
57552;DHT22;43379;48.160;14.036;2023-04-03T17:00:15;7.00;78.80
57552;DHT22;43379;48.160;14.036;2023-04-03T17:02:41;6.90;78.30
57552;DHT22;43379;48.160;14.036;2023-04-03T17:05:07;6.90;78.90
57552;DHT22;43379;48.160;14.036;2023-04-03T17:07:33;6.90;79.20
57552;DHT22;43379;48.160;14.036;2023-04-03T17:09:59;6.90;80.20